createdAt,value
2018-07-11T00:01:10.078Z,11.20
2018-07-11T00:03:41.401Z,11.83
2018-07-11T00:06:09.664Z,11.80
2018-07-11T00:08:37.951Z,11.20
2018-07-11T00:11:06.605Z,11.50
2018-07-11T00:13:35.146Z,11.03
2018-07-11T00:16:03.642Z,12.23
2018-07-11T00:18:32.154Z,11.80
2018-07-11T00:21:00.614Z,12.63
2018-07-11T00:23:28.785Z,11.60
2018-07-11T00:25:56.933Z,12.53
2018-07-11T00:28:25.332Z,12.90
2018-07-11T00:30:53.473Z,11.90
2018-07-11T00:33:21.942Z,12.60
2018-07-11T00:35:50.088Z,12.07
2018-07-11T00:38:18.820Z,12.97
2018-07-11T00:40:47.387Z,11.53
2018-07-11T00:43:15.640Z,12.47
2018-07-11T00:45:44.360Z,13.07
2018-07-11T00:48:12.604Z,12.23
2018-07-11T00:50:41.183Z,12.40
2018-07-11T00:53:09.377Z,12.20
2018-07-11T00:55:37.880Z,11.87
2018-07-11T00:58:09.334Z,11.80
2018-07-11T01:00:37.598Z,12.97
2018-07-11T01:03:05.771Z,13.10
2018-07-11T01:05:33.903Z,13.20
2018-07-11T01:08:02.111Z,13.27
2018-07-11T01:10:30.588Z,13.87
2018-07-11T01:12:59.336Z,14.37
2018-07-11T01:15:27.489Z,12.67
2018-07-11T01:18:03.684Z,14.33
2018-07-11T01:20:31.878Z,13.67
2018-07-11T01:23:00.034Z,13.97
2018-07-11T01:25:29.005Z,13.67
2018-07-11T01:27:57.166Z,14.13
2018-07-11T01:30:25.328Z,13.33
2018-07-11T01:32:53.514Z,12.97
2018-07-11T01:35:21.699Z,13.40
2018-07-11T01:37:50.152Z,13.53
2018-07-11T01:40:18.426Z,14.77
2018-07-11T01:42:46.605Z,15.33
2018-07-11T01:45:14.902Z,14.10
2018-07-11T01:47:43.069Z,14.63
2018-07-11T01:50:11.309Z,15.33
2018-07-11T01:52:45.187Z,15.27
2018-07-11T01:55:13.307Z,14.47
2018-07-11T01:57:41.512Z,16.53
2018-07-11T02:00:10.413Z,16.20
2018-07-11T02:02:38.590Z,15.87
2018-07-11T02:05:07.175Z,14.90
2018-07-11T02:07:35.353Z,15.13
2018-07-11T02:10:03.798Z,15.57
2018-07-11T02:12:31.963Z,14.63
2018-07-11T02:15:07.338Z,15.77
2018-07-11T02:17:37.668Z,15.27
2018-07-11T02:20:06.913Z,15.77
2018-07-11T02:22:35.340Z,15.77
2018-07-11T02:25:04.464Z,14.40
2018-07-11T02:27:32.985Z,15.53
2018-07-11T02:30:02.305Z,15.97
2018-07-11T02:32:31.396Z,16.70
2018-07-11T02:34:59.539Z,16.53
2018-07-11T02:37:27.720Z,16.57
2018-07-11T02:39:56.177Z,16.13
2018-07-11T02:42:24.421Z,16.20
2018-07-11T02:44:52.629Z,17.47
2018-07-11T02:47:26.267Z,15.40
2018-07-11T02:49:54.414Z,14.90
2018-07-11T02:52:22.576Z,15.33
2018-07-11T02:54:50.779Z,15.77
2018-07-11T02:57:18.900Z,15.90
2018-07-11T02:59:47.061Z,16.47
2018-07-11T03:02:15.216Z,15.97
2018-07-11T03:04:43.360Z,16.57
2018-07-11T03:07:11.572Z,16.23
2018-07-11T03:09:40.577Z,15.33
2018-07-11T03:12:09.083Z,14.57
2018-07-11T03:14:38.297Z,15.10
2018-07-11T03:17:06.452Z,14.10
2018-07-11T03:19:34.718Z,12.50
2018-07-11T03:22:02.872Z,12.43
2018-07-11T03:24:31.030Z,11.97
2018-07-11T03:26:59.246Z,11.90
2018-07-11T03:29:27.467Z,12.63
2018-07-11T03:31:56.071Z,11.90
2018-07-11T03:34:24.201Z,11.50
2018-07-11T03:36:52.350Z,11.67
2018-07-11T03:39:20.529Z,12.67
2018-07-11T03:41:48.725Z,11.90
2018-07-11T03:44:17.065Z,12.77
2018-07-11T03:46:45.627Z,11.97
2018-07-11T03:49:13.826Z,13.03
2018-07-11T03:51:41.972Z,12.70
2018-07-11T03:54:10.218Z,12.03
2018-07-11T03:56:38.417Z,12.03
2018-07-11T03:59:06.692Z,12.83
2018-07-11T04:01:34.902Z,12.80
2018-07-11T04:04:03.033Z,13.27
2018-07-11T04:06:31.199Z,12.80
2018-07-11T04:08:59.462Z,13.33
2018-07-11T04:11:27.683Z,13.00
2018-07-11T04:13:55.840Z,13.03
2018-07-11T04:16:23.964Z,12.97
2018-07-11T04:18:52.137Z,12.80
2018-07-11T04:21:20.309Z,12.03
2018-07-11T04:23:48.959Z,12.30
2018-07-11T04:26:17.136Z,12.40
2018-07-11T04:28:45.263Z,11.53
2018-07-11T04:31:13.462Z,12.10
2018-07-11T04:33:42.039Z,12.33
2018-07-11T04:36:10.196Z,11.27
2018-07-11T04:38:38.404Z,11.27
2018-07-11T04:41:06.762Z,12.30
2018-07-11T04:43:35.206Z,10.93
2018-07-11T04:46:03.510Z,10.60
2018-07-11T04:48:31.729Z,11.20
2018-07-11T04:50:59.952Z,11.00
2018-07-11T04:53:28.608Z,10.30
2018-07-11T04:56:00.336Z,9.23
2018-07-11T04:58:29.416Z,9.60
2018-07-11T05:00:58.447Z,9.80
2018-07-11T05:03:26.947Z,9.30
2018-07-11T05:05:55.136Z,8.57
2018-07-11T05:08:24.289Z,7.83
2018-07-11T05:10:53.303Z,8.00
2018-07-11T05:13:21.969Z,8.43
2018-07-11T05:15:50.159Z,7.20
2018-07-11T05:18:18.409Z,7.63
2018-07-11T05:20:47.258Z,7.13
2018-07-11T05:23:15.932Z,7.07
2018-07-11T05:25:44.818Z,7.50
2018-07-11T05:28:12.984Z,6.33
2018-07-11T05:30:41.275Z,6.13
2018-07-11T05:33:09.448Z,6.70
2018-07-11T05:35:38.009Z,6.10
2018-07-11T05:38:06.207Z,6.37
2018-07-11T05:40:34.387Z,5.93
2018-07-11T05:43:02.850Z,6.07
2018-07-11T05:45:31.158Z,5.53
2018-07-11T05:47:59.341Z,5.27
2018-07-11T05:50:27.504Z,5.43
2018-07-11T05:52:55.730Z,5.30
2018-07-11T05:55:23.947Z,5.27
2018-07-11T05:57:52.131Z,4.87
2018-07-11T06:00:20.479Z,4.20
2018-07-11T06:02:48.678Z,4.73
2018-07-11T06:05:17.037Z,4.80
2018-07-11T06:07:45.236Z,4.27
2018-07-11T06:10:13.412Z,4.33
2018-07-11T06:12:41.600Z,4.07
2018-07-11T06:15:10.141Z,3.80
2018-07-11T06:17:38.408Z,4.43
2018-07-11T06:20:06.685Z,4.13
2018-07-11T06:22:36.033Z,3.80
2018-07-11T06:25:04.512Z,4.10
2018-07-11T06:27:32.721Z,4.43
2018-07-11T06:30:00.984Z,4.47
2018-07-11T06:32:29.572Z,4.10
2018-07-11T06:34:57.782Z,3.60
2018-07-11T06:37:26.034Z,4.23
2018-07-11T06:39:54.331Z,3.67
2018-07-11T06:42:22.490Z,3.63
2018-07-11T06:44:50.821Z,3.83
2018-07-11T06:47:19.343Z,3.90
2018-07-11T06:49:48.437Z,3.80
2018-07-11T06:52:16.936Z,4.07
2018-07-11T06:54:45.097Z,3.67
2018-07-11T06:57:14.167Z,4.13
2018-07-11T06:59:42.384Z,4.33
2018-07-11T07:02:10.575Z,3.80
2018-07-11T07:04:38.709Z,4.10
2018-07-11T07:07:06.864Z,3.80
2018-07-11T07:09:35.005Z,3.47
2018-07-11T07:12:03.409Z,3.30
2018-07-11T07:14:31.597Z,3.50
2018-07-11T07:16:59.966Z,3.27
2018-07-11T07:19:28.151Z,3.70
2018-07-11T07:21:56.296Z,4.27
2018-07-11T07:24:24.471Z,3.70
2018-07-11T07:26:52.764Z,3.27
2018-07-11T07:29:20.916Z,3.77
2018-07-11T07:31:49.232Z,3.80
2018-07-11T07:34:17.439Z,3.90
2018-07-11T07:36:45.861Z,3.97
2018-07-11T07:39:14.046Z,3.80
2018-07-11T07:41:42.454Z,3.97
2018-07-11T07:44:11.772Z,3.50
2018-07-11T07:46:40.012Z,3.60
2018-07-11T07:49:08.193Z,3.20
2018-07-11T07:51:36.582Z,3.40
2018-07-11T07:54:05.787Z,3.37
2018-07-11T07:56:34.233Z,2.70
2018-07-11T07:59:02.525Z,2.93
2018-07-11T08:01:31.146Z,2.50
2018-07-11T08:03:59.245Z,2.70
2018-07-11T08:06:27.460Z,3.30
2018-07-11T08:08:56.033Z,3.50
2018-07-11T08:11:24.243Z,3.07
2018-07-11T08:13:52.400Z,3.27
2018-07-11T08:16:20.620Z,3.43
2018-07-11T08:18:48.768Z,3.90
2018-07-11T08:21:17.252Z,2.80
2018-07-11T08:23:51.023Z,2.73
2018-07-11T08:26:25.487Z,2.17
2018-07-11T08:31:05.429Z,2.53
2018-07-11T08:34:41.028Z,3.00
2018-07-11T08:39:17.644Z,2.70
2018-07-11T08:41:53.404Z,2.10
2018-07-11T08:44:58.118Z,2.60
2018-07-11T08:47:34.445Z,2.70
2018-07-11T08:50:07.699Z,2.90
2018-07-11T08:52:42.071Z,3.40
2018-07-11T08:55:17.889Z,2.80
2018-07-11T08:57:58.625Z,3.00
2018-07-11T09:00:32.416Z,2.97
2018-07-11T09:03:12.099Z,2.73
2018-07-11T09:05:44.970Z,3.00
2018-07-11T09:08:31.596Z,2.90
2018-07-11T09:11:05.426Z,2.40
2018-07-11T09:13:39.082Z,2.60
2018-07-11T09:16:16.650Z,2.63
2018-07-11T09:18:50.405Z,2.23
2018-07-11T09:21:22.510Z,2.53
2018-07-11T09:23:57.158Z,2.33
2018-07-11T09:26:25.328Z,1.90
2018-07-11T09:28:53.479Z,2.20
2018-07-11T09:31:21.716Z,2.20
2018-07-11T09:33:49.927Z,1.43
2018-07-11T09:36:18.189Z,1.90
2018-07-11T09:38:46.343Z,1.50
2018-07-11T09:41:14.550Z,1.63
2018-07-11T09:43:42.846Z,1.80
2018-07-11T09:46:11.044Z,1.60
2018-07-11T09:48:39.555Z,1.47
2018-07-11T09:51:08.243Z,2.17
2018-07-11T09:53:36.811Z,1.93
2018-07-11T09:56:05.043Z,1.53
2018-07-11T09:58:33.366Z,1.60
2018-07-11T10:02:28.738Z,1.97
2018-07-11T10:04:57.292Z,1.63
2018-07-11T10:07:26.586Z,1.97
2018-07-11T10:09:55.718Z,1.73
2018-07-11T10:12:24.401Z,1.93
2018-07-11T10:14:52.908Z,1.80
2018-07-11T10:17:21.127Z,2.07
2018-07-11T10:19:49.838Z,1.60
2018-07-11T10:23:30.228Z,1.87
2018-07-11T10:25:58.528Z,2.10
2018-07-11T10:28:26.803Z,2.30
2018-07-11T10:30:55.353Z,1.77
2018-07-11T10:33:23.944Z,2.07
2018-07-11T10:35:52.520Z,1.90
2018-07-11T10:38:21.254Z,2.07
2018-07-11T10:40:49.847Z,2.20
2018-07-11T10:43:18.447Z,2.00
2018-07-11T10:45:47.745Z,1.87
2018-07-11T10:48:16.509Z,1.60
2018-07-11T10:50:45.147Z,1.87
2018-07-11T10:53:14.069Z,1.90
2018-07-11T10:55:42.717Z,2.00
2018-07-11T10:58:12.738Z,1.53
2018-07-11T11:00:41.813Z,1.90
2018-07-11T11:03:10.497Z,1.73
2018-07-11T11:05:39.013Z,2.07
2018-07-11T11:08:07.526Z,2.07
2018-07-11T11:10:36.072Z,1.70
2018-07-11T11:13:04.796Z,2.40
2018-07-11T11:15:33.364Z,2.37
2018-07-11T11:18:02.033Z,2.37
2018-07-11T11:20:30.742Z,2.50
2018-07-11T11:22:59.441Z,2.20
2018-07-11T11:25:28.150Z,2.57
2018-07-11T11:27:58.221Z,2.33
2018-07-11T11:30:26.869Z,2.50
2018-07-11T11:32:55.208Z,2.23
2018-07-11T11:35:24.090Z,2.30
2018-07-11T11:37:52.769Z,2.50
2018-07-11T11:40:21.427Z,2.20
2018-07-11T11:42:50.115Z,2.57
2018-07-11T11:45:19.935Z,2.43
2018-07-11T11:47:48.647Z,2.17
2018-07-11T11:50:17.213Z,2.50
2018-07-11T11:52:45.947Z,1.87
2018-07-11T11:55:14.757Z,2.03
2018-07-11T11:57:43.320Z,2.33
2018-07-11T12:00:11.566Z,2.60
2018-07-11T12:02:40.634Z,2.57
2018-07-11T12:05:09.454Z,2.60
2018-07-11T12:07:38.166Z,2.37
2018-07-11T12:10:06.900Z,2.43
2018-07-11T12:12:35.585Z,2.50
2018-07-11T12:15:04.644Z,2.30
2018-07-11T12:17:33.292Z,2.00
2018-07-11T12:20:02.015Z,2.57
2018-07-11T12:22:30.627Z,2.50
2018-07-11T12:24:59.473Z,1.70
2018-07-11T12:27:27.949Z,1.87
2018-07-11T12:29:56.570Z,2.23
2018-07-11T12:32:29.852Z,1.90
2018-07-11T12:34:58.680Z,1.97
2018-07-11T12:37:31.767Z,2.10
2018-07-11T12:40:00.611Z,2.53
2018-07-11T12:42:29.284Z,2.30
2018-07-11T12:44:57.877Z,1.80
2018-07-11T12:47:31.946Z,2.50
2018-07-11T12:50:00.524Z,2.27
2018-07-11T12:52:29.470Z,2.13
2018-07-11T12:54:58.223Z,2.50
2018-07-11T12:57:26.921Z,2.33
2018-07-11T12:59:55.488Z,2.47
2018-07-11T13:02:24.152Z,2.43
2018-07-11T13:04:53.267Z,2.10
2018-07-11T13:07:22.018Z,2.33
2018-07-11T13:09:50.679Z,2.23
2018-07-11T13:12:19.273Z,2.13
2018-07-11T13:14:47.837Z,2.13
2018-07-11T13:17:16.450Z,2.73
2018-07-11T13:19:45.093Z,2.10
2018-07-11T13:22:13.891Z,2.67
2018-07-11T13:24:43.247Z,2.50
2018-07-11T13:27:11.501Z,2.30
2018-07-11T13:29:40.187Z,2.20
2018-07-11T13:32:08.864Z,2.70
2018-07-11T13:34:38.019Z,2.60
2018-07-11T13:37:07.049Z,3.03
2018-07-11T13:39:35.823Z,2.57
2018-07-11T13:42:04.440Z,2.53
2018-07-11T13:44:33.070Z,2.20
2018-07-11T13:47:06.005Z,2.27
2018-07-11T13:49:34.670Z,2.27
2018-07-11T13:52:03.330Z,2.20
2018-07-11T13:54:34.746Z,2.47
2018-07-11T13:57:04.104Z,2.70
2018-07-11T13:59:32.727Z,2.50
2018-07-11T14:02:01.398Z,2.30
2018-07-11T14:04:30.018Z,2.30
2018-07-11T14:06:58.873Z,3.40
2018-07-11T14:09:27.555Z,2.63
2018-07-11T14:11:56.290Z,2.33
2018-07-11T14:14:24.953Z,2.40
2018-07-11T14:16:53.473Z,2.17
2018-07-11T14:19:22.031Z,2.27
2018-07-11T14:21:50.819Z,2.00
2018-07-11T14:24:19.577Z,2.07
2018-07-11T14:26:48.068Z,2.33
2018-07-11T14:29:16.647Z,2.00
2018-07-11T14:31:45.192Z,2.30
2018-07-11T14:34:13.709Z,2.50
2018-07-11T14:36:42.520Z,2.63
2018-07-11T14:39:11.329Z,2.27
2018-07-11T14:41:40.037Z,2.30
2018-07-11T14:44:08.716Z,2.27
2018-07-11T14:46:37.608Z,2.37
2018-07-11T14:49:06.241Z,2.10
2018-07-11T14:51:35.007Z,2.13
2018-07-11T14:54:03.392Z,2.17
2018-07-11T14:56:32.003Z,2.10
2018-07-11T14:59:00.622Z,2.67
2018-07-11T15:01:29.272Z,2.43
2018-07-11T15:03:57.868Z,2.67
2018-07-11T15:06:26.551Z,2.30
2018-07-11T15:08:56.180Z,2.40
2018-07-11T15:11:24.973Z,2.23
2018-07-11T15:13:53.452Z,2.00
2018-07-11T15:16:22.006Z,2.20
2018-07-11T15:18:57.148Z,2.60
2018-07-11T15:21:25.615Z,2.20
2018-07-11T15:23:54.150Z,2.43
2018-07-11T15:26:23.234Z,2.50
2018-07-11T15:28:51.879Z,2.40
2018-07-11T15:31:20.339Z,2.13
2018-07-11T15:33:48.876Z,2.40
2018-07-11T15:36:17.534Z,2.63
2018-07-11T15:38:46.051Z,2.30
2018-07-11T15:41:14.797Z,3.40
2018-07-11T15:43:43.353Z,3.50
2018-07-11T15:46:11.885Z,3.53
2018-07-11T15:48:40.470Z,2.70
2018-07-11T15:51:08.779Z,3.10
2018-07-11T15:53:37.796Z,2.77
2018-07-11T15:56:06.299Z,2.97
2018-07-11T15:58:37.782Z,3.23
2018-07-11T16:01:09.083Z,3.00
2018-07-11T16:03:42.486Z,2.80
2018-07-11T16:06:11.000Z,2.90
2018-07-11T16:08:42.602Z,3.00
2018-07-11T16:11:11.077Z,3.10
2018-07-11T16:13:39.607Z,3.33
2018-07-11T16:16:08.200Z,3.63
2018-07-11T16:18:37.250Z,3.57
2018-07-11T16:21:06.285Z,3.27
2018-07-11T16:23:34.759Z,3.77
2018-07-11T16:26:03.395Z,3.20
2018-07-11T16:28:32.276Z,3.70
2018-07-11T16:31:00.922Z,3.63
2018-07-11T16:33:29.563Z,3.57
2018-07-11T16:35:58.182Z,3.57
2018-07-11T16:38:26.754Z,3.60
2018-07-11T16:40:55.386Z,3.27
2018-07-11T16:43:23.928Z,3.90
2018-07-11T16:45:53.291Z,3.80
2018-07-11T16:48:22.290Z,4.20
2018-07-11T16:50:50.866Z,3.90
2018-07-11T16:53:19.463Z,4.40
2018-07-11T16:55:48.174Z,4.37
2018-07-11T16:58:18.589Z,5.00
2018-07-11T17:00:50.915Z,4.13
2018-07-11T17:03:19.561Z,4.60
2018-07-11T17:05:51.311Z,5.33
2018-07-11T17:08:29.035Z,4.50
2018-07-11T17:11:09.407Z,5.43
2018-07-11T17:13:38.035Z,4.53
2018-07-11T17:16:06.993Z,5.20
2018-07-11T17:18:44.587Z,5.03
2018-07-11T17:21:22.486Z,4.50
2018-07-11T17:23:53.571Z,5.37
2018-07-11T17:26:25.916Z,5.47
2018-07-11T17:28:56.479Z,5.07
2018-07-11T17:31:25.548Z,4.83
2018-07-11T17:33:54.331Z,5.03
2018-07-11T17:36:22.928Z,5.93
2018-07-11T17:38:51.777Z,5.80
2018-07-11T17:41:20.408Z,5.50
2018-07-11T17:43:51.946Z,4.90
2018-07-11T17:46:22.713Z,5.90
2018-07-11T17:48:59.637Z,5.30
2018-07-11T17:52:35.984Z,5.60
2018-07-11T17:55:07.689Z,4.80
2018-07-11T17:57:44.785Z,4.53
2018-07-11T18:00:20.674Z,4.57
2018-07-11T18:02:54.765Z,5.67
2018-07-11T18:05:32.345Z,5.27
2018-07-11T18:08:07.525Z,5.70
2018-07-11T18:10:46.892Z,5.87
2018-07-11T18:13:33.602Z,5.10
2018-07-11T18:17:12.074Z,5.07
2018-07-11T18:20:09.694Z,6.17
2018-07-11T18:24:49.580Z,5.27
2018-07-11T18:27:29.543Z,4.77
2018-07-11T18:30:12.978Z,6.03
2018-07-11T18:32:50.605Z,5.57
2018-07-11T18:35:32.813Z,5.57
2018-07-11T18:38:12.362Z,6.50
2018-07-11T18:41:21.841Z,5.13
2018-07-11T18:46:06.972Z,6.73
2018-07-11T18:50:49.195Z,5.67
2018-07-11T18:53:43.916Z,6.23
2018-07-11T18:56:19.954Z,6.00
2018-07-11T18:58:57.678Z,5.97
2018-07-11T19:01:40.852Z,5.80
2018-07-11T19:05:23.091Z,7.33
2018-07-11T19:07:55.853Z,5.67
2018-07-11T19:10:34.703Z,5.73
2018-07-11T19:13:18.968Z,7.23
2018-07-11T19:15:50.467Z,6.03
2018-07-11T19:18:29.414Z,6.00
2018-07-11T19:22:04.112Z,6.70
2018-07-11T19:24:45.127Z,6.53
2018-07-11T19:27:22.137Z,6.17
2018-07-11T19:30:04.845Z,6.07
2018-07-11T19:34:48.626Z,7.33
2018-07-11T19:37:24.797Z,6.93
2018-07-11T19:40:02.944Z,7.37
2018-07-11T19:42:39.216Z,6.00
2018-07-11T19:45:15.046Z,5.87
2018-07-11T19:48:01.908Z,5.97
2018-07-11T19:50:41.597Z,5.27
2018-07-11T19:53:17.584Z,5.77
2018-07-11T19:56:54.541Z,5.73
2018-07-11T19:59:23.042Z,6.40
2018-07-11T20:01:51.559Z,5.20
2018-07-11T20:04:20.100Z,5.60
2018-07-11T20:06:49.199Z,6.00
2018-07-11T20:09:17.856Z,5.70
2018-07-11T20:11:46.468Z,6.33
2018-07-11T20:14:15.117Z,6.10
2018-07-11T20:16:43.729Z,5.80
2018-07-11T20:19:12.212Z,6.13
2018-07-11T20:21:40.985Z,5.63
2018-07-11T20:24:09.494Z,6.17
2018-07-11T20:26:38.020Z,5.20
2018-07-11T20:29:06.608Z,4.87
2018-07-11T20:31:34.860Z,5.40
2018-07-11T20:34:03.499Z,4.77
2018-07-11T20:36:32.091Z,5.03
2018-07-11T20:39:00.673Z,5.37
2018-07-11T20:41:29.253Z,5.20
2018-07-11T20:43:57.743Z,5.70
2018-07-11T20:46:26.786Z,5.83
2018-07-11T20:48:55.338Z,5.53
2018-07-11T20:51:23.905Z,6.27
2018-07-11T20:53:53.227Z,5.70
2018-07-11T20:56:21.727Z,6.27
2018-07-11T20:59:01.623Z,5.60
2018-07-11T21:01:41.452Z,6.07
2018-07-11T21:05:03.882Z,5.60
2018-07-11T21:08:13.901Z,5.80
2018-07-11T21:12:58.193Z,5.87
2018-07-11T21:15:44.063Z,6.20
2018-07-11T21:19:17.886Z,6.33
2018-07-11T21:21:46.330Z,6.17
2018-07-11T21:24:14.980Z,6.57
2018-07-11T21:26:43.518Z,6.67
2018-07-11T21:29:12.073Z,6.07
2018-07-11T21:31:41.248Z,6.40
2018-07-11T21:34:09.842Z,6.70
2018-07-11T21:36:38.261Z,7.10
2018-07-11T21:39:06.799Z,7.13
2018-07-11T21:41:34.947Z,6.53
2018-07-11T21:44:03.484Z,6.70
2018-07-11T21:46:32.997Z,7.13
2018-07-11T21:49:01.524Z,6.87
2018-07-11T21:51:29.933Z,7.37
2018-07-11T21:53:58.470Z,7.90
2018-07-11T21:56:26.956Z,7.27
2018-07-11T21:58:55.418Z,7.87
2018-07-11T22:01:23.906Z,8.10
2018-07-11T22:03:52.456Z,7.13
2018-07-11T22:06:20.658Z,8.37
2018-07-11T22:08:49.108Z,7.73
2018-07-11T22:11:17.829Z,8.47
2018-07-11T22:13:46.244Z,8.53
2018-07-11T22:16:14.754Z,6.90
2018-07-11T22:18:44.994Z,8.00
2018-07-11T22:21:13.248Z,7.67
2018-07-11T22:23:40.789Z,8.33
2018-07-11T22:26:08.273Z,8.50
2018-07-11T22:28:35.609Z,7.30
2018-07-11T22:31:02.949Z,7.40
2018-07-11T22:33:30.296Z,8.00
2018-07-11T22:35:57.631Z,8.03
2018-07-11T22:38:25.048Z,7.60
2018-07-11T22:40:52.433Z,8.13
2018-07-11T22:43:19.779Z,8.00
2018-07-11T22:45:47.141Z,8.67
2018-07-11T22:48:14.657Z,8.07
2018-07-11T22:50:42.243Z,7.53
2018-07-11T22:53:09.642Z,7.90
2018-07-11T22:55:36.958Z,7.30
2018-07-11T22:58:04.350Z,8.00
2018-07-11T23:00:32.049Z,8.47
2018-07-11T23:02:59.621Z,8.83
2018-07-11T23:05:27.740Z,7.43
2018-07-11T23:07:55.060Z,8.23
2018-07-11T23:10:22.420Z,8.40
2018-07-11T23:12:49.753Z,7.90
2018-07-11T23:15:17.092Z,8.17
2018-07-11T23:17:44.418Z,8.50
2018-07-11T23:20:11.739Z,8.13
2018-07-11T23:22:39.292Z,8.30
2018-07-11T23:25:06.642Z,7.80
2018-07-11T23:27:34.031Z,7.97
2018-07-11T23:30:01.343Z,7.83
2018-07-11T23:32:28.711Z,8.17
2018-07-11T23:34:56.021Z,9.00
2018-07-11T23:37:23.348Z,9.00
2018-07-11T23:39:51.487Z,7.90
2018-07-11T23:42:18.816Z,8.00
2018-07-11T23:44:46.127Z,9.60
2018-07-11T23:47:13.449Z,8.20
2018-07-11T23:49:40.815Z,8.80
2018-07-11T23:52:08.156Z,8.30
2018-07-11T23:54:35.485Z,8.73
2018-07-11T23:57:02.882Z,7.87
2018-07-11T23:59:30.326Z,9.70
